Carbon, Texas
Current Conditions -  °F | °C
As of 10:15 AM on Monday 24 Nov 2014 (Local Time) from KMKN Reporting Station
Clear Clear  
Wind Chill: 50°   Ceiling: Unl
Heat Index: 50°   Visibility: 10mi
Dew Point: 31°   Wind: 7mph
Humidity: 48%   Direction: 330°NNW
Pressure: 30.11"   Gusts: NA
Location:  32.27°N, 98.83°W
Report Text: KMKN 241615Z AUTO 33006KT 10SM CLR 10/M01 A3011 RMK AO2 T01011006
Loading
Personal Weather Stations






























Interactive Weather Map New forecast layout! Learn more

10-Day Weather Forecast

Advertisements
Track Severe Weather on mobile